KJAC/JAC METAR and TAF weather

Enter ICAO airport designator
Station Type Date Time Source
KJAC METAR 2021/01/20 22:56 UTC NOAA

KJAC 202256Z 00000KT 10SM SCT075 OVC095 M07/M13 A3009 RMK AO2 SLP295 T10721133


Station Type Date Time Source
KJAC Decoded METAR 2021/01/20 22:56 UTC NOAA

Jackson, Jackson Hole Airport, WY, United States (KJAC) 43-36N 110-44W
Jan 20, 2021 - 05:56 PM EST / 2021.01.20 2256 UTC
Wind: Calm:0
Visibility: 10 mile(s):0
Sky conditions: overcast
Temperature: 19.0 F (-7.2 C)
Dew Point: 8.1 F (-13.3 C)
Relative Humidity: 61%
Pressure (altimeter): 30.09 in. Hg (1018 hPa)
ob: KJAC 202256Z 00000KT 10SM SCT075 OVC095 M07/M13 A3009 RMK AO2 SLP295 T10721133
cycle: 23

Station Type Date Time Source
KJAC TAF 2021/01/20 18:27 UTC NOAA

TAF KJAC 201725Z 2018/2118 19005KT P6SM SCT150
FM210800 24006KT P6SM SCT100 BKN150
FM211500 22007KT P6SM SCT060 BKN100

Example: see airport list